Главная страница
METAR-TAF:

METAR-TAF

Аэропорты :

Анкара Эсенбога, Турция

широта: 40-07N, долгота: 032-59E, высота над уровнем моря: 953 м

Текущие метеонаблюдения

Эта сводка был подготовлена 38 минут назад, в 23:50 UTC
Ветер 7 Узел от северный
Температура -5°C
Влажность 86%
Давление 1021 hPa
Видимость 10 км и более
Нет облачности ниже 1500 м, и нет кучево-дождевой облачности

METAR: LTAC 172350Z 01007KT CAVOK M05/M07 Q1021 NOSIG RMK RWY21L 01004KT 340V040 RWY03L 01005KT RWY21R 01004KT 350V070

Время: 03:28 (00:28 UTC)

Прогноз

Эта сводка был подготовлена 1 час и 48 минут назад, в 22:40 UTC
Прогноз действительный с 18-го 00 UTC до 18-го 24 UTC
Ветер 2 Узел переменных направлений
Видимость 10 км и более
Нет облачности ниже 1500 м, и нет кучево-дождевой облачности
Вероятность 30%
С 18-го 03 UTC до 18-го 07 UTC
Видимость: 4000 м
дымка
изменения
С 18-го 07 UTC до 18-го 09 UTC
Отдельные облака на высоте 4000 фута

TAF: LTAC 172240Z 1800/1824 VRB02KT CAVOK PROB30 1803/1807 4000 BR BECMG 1807/1809 SCT040

Метеонаблюдения и прогнозы для более 4000 аэропортов (сводки METAR и TAF).

Имеющиеся станции представлены на карте желтыми и красными точками.

Чтобы увидеть название станции, наведите на нее мышь.

Затем щелкните, чтобы увидеть метеонаблюдения и метеопрогнозы.

Управление картой: чтобы увеличить масштаб, щелкните зеленые кнопки с черным крестиком; чтобы уменьшить масштаб, щелкните зеленую кнопку с тире; для просмотра соседних карт щелкайте зеленые стрелки.


METAR-TAF: